createdAt,value
2018-06-22T00:00:08.113Z,14.08
2018-06-22T00:02:40.171Z,14.04
2018-06-22T00:05:12.204Z,14.07
2018-06-22T00:07:44.307Z,13.90
2018-06-22T00:10:16.359Z,13.80
2018-06-22T00:12:48.404Z,13.84
2018-06-22T00:15:20.497Z,13.78
2018-06-22T00:17:52.571Z,13.80
2018-06-22T00:20:24.630Z,13.68
2018-06-22T00:22:56.716Z,13.59
2018-06-22T00:25:28.743Z,13.49
2018-06-22T00:28:00.800Z,13.42
2018-06-22T00:30:32.885Z,13.37
2018-06-22T00:33:04.981Z,13.22
2018-06-22T00:35:37.080Z,13.20
2018-06-22T00:38:09.174Z,13.14
2018-06-22T00:40:41.251Z,13.11
2018-06-22T00:43:13.394Z,13.07
2018-06-22T00:45:45.458Z,13.06
2018-06-22T00:48:17.551Z,13.03
2018-06-22T00:50:49.689Z,12.92
2018-06-22T00:53:33.282Z,12.81
2018-06-22T00:56:05.370Z,12.77
2018-06-22T00:58:37.400Z,12.80
2018-06-22T01:01:09.483Z,12.76
2018-06-22T01:03:41.580Z,12.78
2018-06-22T01:06:13.718Z,12.80
2018-06-22T01:08:45.796Z,12.75
2018-06-22T01:11:17.870Z,12.72
2018-06-22T01:13:49.939Z,12.78
2018-06-22T01:16:22.108Z,12.64
2018-06-22T01:18:54.528Z,12.56
2018-06-22T01:21:26.657Z,12.55
2018-06-22T01:23:58.724Z,12.49
2018-06-22T01:26:31.558Z,12.37
2018-06-22T01:29:09.288Z,12.44
2018-06-22T01:31:41.373Z,12.31
2018-06-22T01:34:13.476Z,12.27
2018-06-22T01:36:45.602Z,12.20
2018-06-22T01:39:17.684Z,12.08
2018-06-22T01:41:49.791Z,11.99
2018-06-22T01:44:22.104Z,11.92
2018-06-22T01:46:54.151Z,11.82
2018-06-22T01:49:26.211Z,11.84
2018-06-22T01:51:58.284Z,11.82
2018-06-22T01:54:30.373Z,11.67
2018-06-22T01:57:02.517Z,11.45
2018-06-22T01:59:34.588Z,11.34
2018-06-22T02:02:06.651Z,11.36
2018-06-22T02:04:38.723Z,11.33
2018-06-22T02:07:10.817Z,11.53
2018-06-22T02:09:42.914Z,11.49
2018-06-22T02:12:15.007Z,11.38
2018-06-22T02:14:47.334Z,11.41
2018-06-22T02:17:19.437Z,11.54
2018-06-22T02:19:51.472Z,11.53
2018-06-22T02:22:23.542Z,11.57
2018-06-22T02:24:55.646Z,11.72
2018-06-22T02:27:27.737Z,11.74
2018-06-22T02:29:59.895Z,11.71
2018-06-22T02:32:31.979Z,11.73
2018-06-22T02:35:04.085Z,11.73
2018-06-22T02:37:36.250Z,11.63
2018-06-22T02:40:08.427Z,11.63
2018-06-22T02:42:40.539Z,11.61
2018-06-22T02:45:12.619Z,11.65
2018-06-22T02:47:44.715Z,11.55
2018-06-22T02:50:16.740Z,11.58
2018-06-22T02:52:48.851Z,11.50
2018-06-22T02:55:20.939Z,11.36
2018-06-22T02:57:53.019Z,11.16
2018-06-22T03:00:25.101Z,11.10
2018-06-22T03:02:57.181Z,11.03
2018-06-22T03:05:29.243Z,10.71
2018-06-22T03:08:01.368Z,10.38
2018-06-22T03:10:33.448Z,10.43
2018-06-22T03:13:05.534Z,10.54
2018-06-22T03:15:37.621Z,10.56
2018-06-22T03:18:09.703Z,10.59
2018-06-22T03:20:41.825Z,10.62
2018-06-22T03:23:13.905Z,10.66
2018-06-22T03:25:45.965Z,10.66
2018-06-22T03:28:18.035Z,10.68
2018-06-22T03:30:50.128Z,10.71
2018-06-22T03:33:22.215Z,10.74
2018-06-22T03:35:54.426Z,10.76
2018-06-22T03:38:26.535Z,10.77
2018-06-22T03:40:58.609Z,10.72
2018-06-22T03:43:30.735Z,10.78
2018-06-22T03:46:02.828Z,10.80
2018-06-22T03:48:34.911Z,10.79
2018-06-22T03:51:06.963Z,10.75
2018-06-22T03:53:39.015Z,10.77
2018-06-22T03:56:11.077Z,10.80
2018-06-22T03:58:43.232Z,10.84
2018-06-22T04:01:15.275Z,10.89
2018-06-22T04:03:47.367Z,10.91
2018-06-22T04:06:19.408Z,10.94
2018-06-22T04:08:51.470Z,10.96
2018-06-22T04:11:23.560Z,11.05
2018-06-22T04:13:55.693Z,11.07
2018-06-22T04:16:27.763Z,11.11
2018-06-22T04:18:59.856Z,11.20
2018-06-22T04:21:31.906Z,11.31
2018-06-22T04:24:03.983Z,12.04
2018-06-22T04:26:36.044Z,13.20
2018-06-22T04:29:08.143Z,14.18
2018-06-22T04:31:40.207Z,14.73
2018-06-22T04:34:12.295Z,15.40
2018-06-22T04:36:44.463Z,16.16
2018-06-22T04:39:16.581Z,16.43
2018-06-22T04:41:48.631Z,17.33
2018-06-22T04:44:20.704Z,16.75
2018-06-22T04:46:52.847Z,17.59
2018-06-22T04:49:24.954Z,18.46
2018-06-22T04:51:57.028Z,18.62
2018-06-22T04:54:29.071Z,18.41
2018-06-22T04:57:01.143Z,17.10
2018-06-22T04:59:33.198Z,17.74
2018-06-22T05:02:05.297Z,19.18
2018-06-22T05:04:37.398Z,19.68
2018-06-22T05:07:09.505Z,20.20
2018-06-22T05:09:41.565Z,20.02
2018-06-22T05:12:13.657Z,19.99
2018-06-22T05:14:45.758Z,19.20
2018-06-22T05:17:17.807Z,19.64
2018-06-22T05:19:50.294Z,19.88
2018-06-22T05:22:22.391Z,20.10
2018-06-22T05:24:54.611Z,20.70
2018-06-22T05:27:26.675Z,21.31
2018-06-22T05:29:59.173Z,22.06
2018-06-22T05:32:31.271Z,21.85
2018-06-22T05:35:03.541Z,20.99
2018-06-22T05:37:35.727Z,20.18
2018-06-22T05:40:07.908Z,20.03
2018-06-22T05:42:40.075Z,19.44
2018-06-22T05:45:12.150Z,20.47
2018-06-22T05:47:44.391Z,20.03
2018-06-22T05:50:16.496Z,20.74
2018-06-22T05:52:48.556Z,20.23
2018-06-22T05:55:20.629Z,21.06
2018-06-22T05:57:52.696Z,21.51
2018-06-22T06:00:24.785Z,21.10
2018-06-22T06:02:56.968Z,21.52
2018-06-22T06:05:29.043Z,20.77
2018-06-22T06:08:01.077Z,21.05
2018-06-22T06:10:33.155Z,20.66
2018-06-22T06:13:05.314Z,20.23
2018-06-22T06:15:37.396Z,21.06
2018-06-22T06:18:09.479Z,22.08
2018-06-22T06:20:41.552Z,21.34
2018-06-22T06:23:13.646Z,22.04
2018-06-22T06:25:45.773Z,20.63
2018-06-22T06:28:17.866Z,19.57
2018-06-22T06:30:49.915Z,20.91
2018-06-22T06:33:21.951Z,19.84
2018-06-22T06:35:54.070Z,20.80
2018-06-22T06:38:26.090Z,20.59
2018-06-22T06:40:58.192Z,21.24
2018-06-22T06:43:30.240Z,20.65
2018-06-22T06:46:02.317Z,21.25
2018-06-22T06:48:34.390Z,21.93
2018-06-22T06:51:06.612Z,23.02
2018-06-22T06:53:38.669Z,22.07
2018-06-22T06:56:10.781Z,23.06
2018-06-22T06:58:42.874Z,22.11
2018-06-22T07:01:14.958Z,22.73
2018-06-22T07:03:47.122Z,23.18
2018-06-22T07:06:19.179Z,22.03
2018-06-22T07:08:51.277Z,22.68
2018-06-22T07:11:23.387Z,22.22
2018-06-22T07:13:55.574Z,22.11
2018-06-22T07:16:27.751Z,22.87
2018-06-22T07:18:59.947Z,23.97
2018-06-22T07:21:32.044Z,23.55
2018-06-22T07:24:04.179Z,24.55
2018-06-22T07:26:36.285Z,22.48
2018-06-22T07:29:08.397Z,23.20
2018-06-22T07:31:40.484Z,24.71
2018-06-22T07:34:12.563Z,22.34
2018-06-22T07:36:44.678Z,21.92
2018-06-22T07:39:16.749Z,21.44
2018-06-22T07:41:48.866Z,23.12
2018-06-22T07:44:20.984Z,23.90
2018-06-22T07:46:53.083Z,23.95
2018-06-22T07:49:25.215Z,24.15
2018-06-22T07:51:57.309Z,21.46
2018-06-22T07:54:29.897Z,21.52
2018-06-22T07:57:02.091Z,22.16
2018-06-22T07:59:34.171Z,22.61
2018-06-22T08:02:06.283Z,21.64
2018-06-22T08:04:38.411Z,24.37
2018-06-22T08:07:10.699Z,22.32
2018-06-22T08:09:43.610Z,22.08
2018-06-22T08:12:15.735Z,20.96
2018-06-22T08:14:47.848Z,20.19
2018-06-22T08:17:19.940Z,21.48
2018-06-22T08:19:51.986Z,22.68
2018-06-22T08:22:24.077Z,22.34
2018-06-22T08:24:56.181Z,21.62
2018-06-22T08:27:28.398Z,22.22
2018-06-22T08:30:00.492Z,22.63
2018-06-22T08:32:32.573Z,22.67
2018-06-22T08:35:04.669Z,22.87
2018-06-22T08:37:36.726Z,22.13
2018-06-22T08:40:08.798Z,22.56
2018-06-22T08:42:40.874Z,22.31
2018-06-22T08:45:13.033Z,22.75
2018-06-22T08:47:47.717Z,23.50
2018-06-22T08:50:21.423Z,23.54
2018-06-22T08:52:55.412Z,22.31
2018-06-22T08:55:27.509Z,21.48
2018-06-22T08:57:59.598Z,20.73
2018-06-22T09:00:31.665Z,21.92
2018-06-22T09:03:03.904Z,22.32
2018-06-22T09:05:35.998Z,23.67
2018-06-22T09:08:08.187Z,22.71
2018-06-22T09:10:40.249Z,20.89
2018-06-22T09:13:12.400Z,20.98
2018-06-22T09:15:44.448Z,22.26
2018-06-22T09:18:16.520Z,21.20
2018-06-22T09:20:48.607Z,20.44
2018-06-22T09:23:20.654Z,20.69
2018-06-22T09:25:52.675Z,21.02
2018-06-22T09:28:24.941Z,20.29
2018-06-22T09:30:57.067Z,20.38
2018-06-22T09:33:29.143Z,21.13
2018-06-22T09:36:01.196Z,21.97
2018-06-22T09:38:33.246Z,21.23
2018-06-22T09:41:05.471Z,21.81
2018-06-22T09:43:37.554Z,21.29
2018-06-22T09:46:09.624Z,21.69
2018-06-22T09:48:41.691Z,21.02
2018-06-22T09:51:13.787Z,21.87
2018-06-22T09:53:45.897Z,22.36
2018-06-22T09:56:17.982Z,22.24
2018-06-22T09:58:50.097Z,23.24
2018-06-22T10:01:22.177Z,23.00
2018-06-22T10:03:54.395Z,22.49
2018-06-22T10:06:26.483Z,23.31
2018-06-22T10:08:58.559Z,23.71
2018-06-22T10:11:30.677Z,21.66
2018-06-22T10:14:02.780Z,21.76
2018-06-22T10:16:34.842Z,21.45
2018-06-22T10:19:06.909Z,20.80
2018-06-22T10:21:38.981Z,21.46
2018-06-22T10:24:11.047Z,20.86
2018-06-22T10:26:43.092Z,19.13
2018-06-22T10:29:15.133Z,18.91
2018-06-22T10:31:47.175Z,18.88
2018-06-22T10:34:19.268Z,19.46
2018-06-22T10:36:51.287Z,19.79
2018-06-22T10:39:23.330Z,18.62
2018-06-22T10:41:55.440Z,18.08
2018-06-22T10:44:27.516Z,17.79
2018-06-22T10:46:59.586Z,17.83
2018-06-22T10:49:31.651Z,17.51
2018-06-22T10:52:03.751Z,17.53
2018-06-22T10:54:35.859Z,16.89
2018-06-22T10:57:07.908Z,16.72
2018-06-22T10:59:40.079Z,17.23
2018-06-22T11:02:12.083Z,16.79
2018-06-22T11:04:44.205Z,16.50
2018-06-22T11:07:16.338Z,16.17
2018-06-22T11:09:48.407Z,15.92
2018-06-22T11:12:20.515Z,15.39
2018-06-22T11:14:52.583Z,15.06
2018-06-22T11:17:24.599Z,14.81
2018-06-22T11:19:56.714Z,14.68
2018-06-22T11:22:28.819Z,14.30
2018-06-22T11:25:01.010Z,14.08
2018-06-22T11:27:33.099Z,14.00
2018-06-22T11:30:05.262Z,13.87
2018-06-22T11:32:37.392Z,13.92
2018-06-22T11:35:09.463Z,14.17
2018-06-22T11:37:41.505Z,14.04
2018-06-22T11:40:13.732Z,14.26
2018-06-22T11:42:46.278Z,14.27
2018-06-22T11:45:18.411Z,14.41
2018-06-22T11:47:50.519Z,14.03
2018-06-22T11:50:22.607Z,14.34
2018-06-22T11:52:54.680Z,14.57
2018-06-22T11:55:27.195Z,15.18
2018-06-22T11:57:59.300Z,16.74
2018-06-22T12:00:31.399Z,18.36
2018-06-22T12:03:03.668Z,18.76
2018-06-22T12:05:35.813Z,19.36
2018-06-22T12:08:08.010Z,20.49
2018-06-22T12:10:40.116Z,22.11
2018-06-22T12:13:12.260Z,22.93
2018-06-22T12:15:44.492Z,22.58
2018-06-22T12:18:16.625Z,20.36
2018-06-22T12:20:48.738Z,20.03
2018-06-22T12:23:20.991Z,19.97
2018-06-22T12:25:53.073Z,18.87
2018-06-22T12:28:25.121Z,17.78
2018-06-22T12:30:57.251Z,17.06
2018-06-22T12:33:29.340Z,16.80
2018-06-22T12:36:01.421Z,17.10
2018-06-22T12:38:34.462Z,17.19
2018-06-22T12:41:06.564Z,17.52
2018-06-22T12:43:38.639Z,19.17
2018-06-22T12:46:10.748Z,20.56
2018-06-22T12:48:42.998Z,21.97
2018-06-22T12:51:15.412Z,21.90
2018-06-22T12:53:47.624Z,22.63
2018-06-22T12:56:19.704Z,22.84
2018-06-22T12:58:51.801Z,23.02
2018-06-22T13:01:24.564Z,22.43
2018-06-22T13:03:56.715Z,20.59
2018-06-22T13:06:28.783Z,22.20
2018-06-22T13:09:01.608Z,21.56
2018-06-22T13:11:33.824Z,20.36
2018-06-22T13:14:06.389Z,21.30
2018-06-22T13:16:38.516Z,20.39
2018-06-22T13:19:10.579Z,20.08
2018-06-22T13:21:49.958Z,19.46
2018-06-22T13:24:23.207Z,19.31
2018-06-22T13:26:55.323Z,18.47
2018-06-22T13:29:27.558Z,20.24
2018-06-22T13:31:59.645Z,23.17
2018-06-22T13:34:31.790Z,20.97
2018-06-22T13:37:03.959Z,20.38
2018-06-22T13:39:36.058Z,18.63
2018-06-22T13:42:07.943Z,19.04
2018-06-22T13:44:40.144Z,19.77
2018-06-22T13:47:12.213Z,22.78
2018-06-22T13:49:44.298Z,22.43
2018-06-22T13:52:16.362Z,21.27
2018-06-22T13:54:48.460Z,19.40
2018-06-22T13:57:20.571Z,18.33
2018-06-22T13:59:52.683Z,18.13
2018-06-22T14:02:24.823Z,17.87
2018-06-22T14:06:01.162Z,18.68
2018-06-22T14:08:33.321Z,20.31
2018-06-22T14:11:05.397Z,20.66
2018-06-22T14:13:37.481Z,21.11
2018-06-22T14:16:09.547Z,20.41
2018-06-22T14:18:42.896Z,18.85
2018-06-22T14:21:15.010Z,17.93
2018-06-22T14:23:47.179Z,17.22
2018-06-22T14:26:19.361Z,16.30
2018-06-22T14:28:51.460Z,17.69
2018-06-22T14:31:23.550Z,18.53
2018-06-22T14:33:55.704Z,18.54
2018-06-22T14:36:27.938Z,18.46
2018-06-22T14:39:01.193Z,18.37
2018-06-22T14:41:33.283Z,18.06
2018-06-22T14:50:00.778Z,21.99
2018-06-22T14:52:32.874Z,21.75
2018-06-22T14:55:10.769Z,21.82
2018-06-22T14:57:48.718Z,23.06
2018-06-22T15:00:26.381Z,20.63
2018-06-22T15:03:04.058Z,20.58
2018-06-22T15:05:41.716Z,21.77
2018-06-22T15:08:18.633Z,21.52
2018-06-22T15:10:50.820Z,19.95
2018-06-22T15:13:23.143Z,19.79
2018-06-22T15:15:59.232Z,19.60
2018-06-22T15:18:31.337Z,17.94
2018-06-22T15:21:03.551Z,16.02
2018-06-22T15:23:35.634Z,15.57
2018-06-22T15:26:07.933Z,14.91
2018-06-22T15:28:40.194Z,15.35
2018-06-22T15:31:12.268Z,16.58
2018-06-22T15:33:50.687Z,15.70
2018-06-22T15:36:28.380Z,15.05
2018-06-22T15:39:06.328Z,15.35
2018-06-22T15:41:44.003Z,15.07
2018-06-22T15:44:21.860Z,15.23
2018-06-22T15:46:59.812Z,15.35
2018-06-22T15:49:37.780Z,15.41
2018-06-22T15:52:15.532Z,14.79
2018-06-22T15:54:53.126Z,14.09
2018-06-22T15:57:25.230Z,13.62
2018-06-22T15:59:57.452Z,13.57
2018-06-22T16:02:35.109Z,13.35
2018-06-22T16:05:07.264Z,13.35
2018-06-22T16:07:39.599Z,13.36
2018-06-22T16:10:11.882Z,13.49
2018-06-22T16:12:43.988Z,14.05
2018-06-22T16:15:21.695Z,14.34
2018-06-22T16:17:59.448Z,14.64
2018-06-22T16:20:37.224Z,16.64
2018-06-22T16:23:14.948Z,16.56
2018-06-22T16:25:52.643Z,16.58
2018-06-22T16:28:24.732Z,18.94
2018-06-22T16:30:56.861Z,19.47
2018-06-22T16:33:28.972Z,18.79
2018-06-22T16:36:01.076Z,16.93
2018-06-22T16:38:33.092Z,18.08
2018-06-22T16:41:05.248Z,18.81
2018-06-22T16:43:37.292Z,19.29
2018-06-22T16:46:09.352Z,19.19
2018-06-22T16:48:41.492Z,18.58
2018-06-22T16:51:13.576Z,17.59
2018-06-22T16:53:45.719Z,17.85
2018-06-22T16:56:17.865Z,18.56
2018-06-22T16:58:50.985Z,18.16
2018-06-22T17:01:23.070Z,16.92
2018-06-22T17:03:55.283Z,16.93
2018-06-22T17:06:32.034Z,17.22
2018-06-22T17:09:12.669Z,17.29
2018-06-22T17:11:50.343Z,17.41
2018-06-22T17:14:28.078Z,17.10
2018-06-22T17:17:05.746Z,16.83
2018-06-22T17:19:37.915Z,16.58
2018-06-22T17:22:10.040Z,16.22
2018-06-22T17:24:42.231Z,16.05
2018-06-22T17:27:14.331Z,15.90
2018-06-22T17:29:46.552Z,15.87
2018-06-22T17:32:18.619Z,15.48
2018-06-22T17:34:51.273Z,15.50
2018-06-22T17:37:23.727Z,15.46
2018-06-22T17:39:55.896Z,15.81
2018-06-22T17:42:28.559Z,15.81
2018-06-22T17:45:00.719Z,15.63
2018-06-22T17:47:32.902Z,15.49
2018-06-22T17:50:10.755Z,15.20
2018-06-22T17:52:42.896Z,15.27
2018-06-22T17:55:14.997Z,15.23
2018-06-22T17:57:47.116Z,15.10
2018-06-22T18:00:24.995Z,15.04
2018-06-22T18:03:02.703Z,14.96
2018-06-22T18:05:40.604Z,14.58
2018-06-22T18:08:18.349Z,13.58
2018-06-22T18:10:56.132Z,12.74
2018-06-22T18:13:29.252Z,12.47
2018-06-22T18:16:04.793Z,12.24
2018-06-22T18:18:36.943Z,12.12
2018-06-22T18:21:09.094Z,12.18
2018-06-22T18:23:41.239Z,12.14
2018-06-22T18:26:13.352Z,12.13
2018-06-22T18:28:45.484Z,12.24
2018-06-22T18:31:17.698Z,12.27
2018-06-22T18:33:49.763Z,12.35
2018-06-22T18:36:21.872Z,12.34
2018-06-22T18:38:54.012Z,12.40
2018-06-22T18:41:26.256Z,12.49
2018-06-22T18:43:59.553Z,12.51
2018-06-22T18:46:31.996Z,12.50
2018-06-22T18:49:04.104Z,12.44
2018-06-22T18:51:36.201Z,12.29
2018-06-22T18:54:14.130Z,12.28
2018-06-22T18:56:51.840Z,12.24
2018-06-22T18:59:30.767Z,12.26
2018-06-22T19:02:08.507Z,12.23
2018-06-22T19:04:40.792Z,12.36
2018-06-22T19:07:12.877Z,12.31
2018-06-22T19:09:44.946Z,12.39
2018-06-22T19:12:17.126Z,12.41
2018-06-22T19:14:49.212Z,12.38
2018-06-22T19:17:21.292Z,12.23
2018-06-22T19:19:53.419Z,12.04
2018-06-22T19:22:25.523Z,11.92
2018-06-22T19:24:57.807Z,11.69
2018-06-22T19:27:29.924Z,11.54
2018-06-22T19:30:02.077Z,11.38
2018-06-22T19:32:34.228Z,11.33
2018-06-22T19:35:13.461Z,11.30
2018-06-22T19:37:45.566Z,11.36
2018-06-22T19:40:17.654Z,11.29
2018-06-22T19:42:49.803Z,11.39
2018-06-22T19:45:27.575Z,11.49
2018-06-22T19:49:02.673Z,11.45
2018-06-22T19:51:40.410Z,11.30
2018-06-22T19:54:12.613Z,11.30
2018-06-22T19:56:44.759Z,11.15
2018-06-22T19:59:17.994Z,10.99
2018-06-22T20:01:50.106Z,10.79
2018-06-22T20:04:22.360Z,10.77
2018-06-22T20:06:54.490Z,10.74
2018-06-22T20:09:26.557Z,10.83
2018-06-22T20:11:58.624Z,10.73
2018-06-22T20:14:30.685Z,10.72
2018-06-22T20:17:02.964Z,10.68
2018-06-22T20:19:35.035Z,10.71
2018-06-22T20:22:07.122Z,10.85
2018-06-22T20:24:44.700Z,10.88
2018-06-22T20:27:16.807Z,10.80
2018-06-22T20:29:48.938Z,10.81
2018-06-22T20:32:21.142Z,10.98
2018-06-22T20:35:00.091Z,10.99
2018-06-22T20:37:37.930Z,11.00
2018-06-22T20:40:15.579Z,11.00
2018-06-22T20:42:52.237Z,10.90
2018-06-22T20:45:29.976Z,10.94
2018-06-22T20:48:07.847Z,11.04
2018-06-22T20:50:39.932Z,11.04
2018-06-22T20:53:12.077Z,11.03
2018-06-22T20:55:44.207Z,11.10
2018-06-22T20:58:18.401Z,11.11
2018-06-22T21:00:53.121Z,11.19
2018-06-22T21:03:25.148Z,11.29
2018-06-22T21:05:57.212Z,11.38
2018-06-22T21:08:29.299Z,11.44
2018-06-22T21:11:01.477Z,11.47
2018-06-22T21:13:33.604Z,11.61
2018-06-22T21:16:05.723Z,11.64
2018-06-22T21:18:37.816Z,11.64
2018-06-22T21:21:15.846Z,11.67
2018-06-22T21:23:47.919Z,11.60
2018-06-22T21:26:19.990Z,11.62
2018-06-22T21:28:57.643Z,11.54
2018-06-22T21:31:35.383Z,11.55
2018-06-22T21:35:13.655Z,11.50
2018-06-22T21:37:51.320Z,11.32
2018-06-22T21:40:23.368Z,11.19
2018-06-22T21:42:55.435Z,10.98
2018-06-22T21:45:27.545Z,10.83
2018-06-22T21:47:59.692Z,10.74
2018-06-22T21:50:31.744Z,10.64
2018-06-22T21:53:03.914Z,10.56
2018-06-22T21:55:35.980Z,10.45
2018-06-22T21:58:08.048Z,10.43
2018-06-22T22:00:40.107Z,10.41
2018-06-22T22:03:12.187Z,10.37
2018-06-22T22:05:44.296Z,10.48
2018-06-22T22:08:16.373Z,10.49
2018-06-22T22:10:54.342Z,10.46
2018-06-22T22:13:26.444Z,10.55
2018-06-22T22:15:58.549Z,10.59
2018-06-22T22:18:30.720Z,10.72
2018-06-22T22:21:02.873Z,10.75
2018-06-22T22:23:35.002Z,10.36
2018-06-22T22:26:07.118Z,10.84
2018-06-22T22:28:39.335Z,10.73
2018-06-22T22:31:11.465Z,10.88
2018-06-22T22:33:43.628Z,10.91
2018-06-22T22:36:15.749Z,10.97
2018-06-22T22:38:47.819Z,11.06
2018-06-22T22:41:19.890Z,11.12
2018-06-22T22:43:51.995Z,11.15
2018-06-22T22:46:24.073Z,11.21
2018-06-22T22:48:56.194Z,11.26
2018-06-22T22:51:28.295Z,11.29
2018-06-22T22:54:00.491Z,11.27
2018-06-22T22:56:32.640Z,11.27
2018-06-22T22:59:04.749Z,11.23
2018-06-22T23:01:36.840Z,11.18
2018-06-22T23:04:08.897Z,11.20
2018-06-22T23:06:40.972Z,11.23
2018-06-22T23:09:13.026Z,11.25
2018-06-22T23:11:45.112Z,11.26
2018-06-22T23:14:17.167Z,11.27
2018-06-22T23:16:49.229Z,11.23
2018-06-22T23:19:21.482Z,11.27
2018-06-22T23:21:53.556Z,11.26
2018-06-22T23:24:25.640Z,11.27
2018-06-22T23:26:57.710Z,11.29
2018-06-22T23:29:29.944Z,11.24
2018-06-22T23:32:02.041Z,11.25
2018-06-22T23:34:34.405Z,11.22
2018-06-22T23:37:06.692Z,11.18
2018-06-22T23:39:38.888Z,11.31
2018-06-22T23:42:10.930Z,11.32
2018-06-22T23:44:43.080Z,11.27
2018-06-22T23:47:15.146Z,11.28
2018-06-22T23:49:47.242Z,11.25
2018-06-22T23:52:19.424Z,11.27
2018-06-22T23:54:51.544Z,11.23
2018-06-22T23:57:23.556Z,11.27
2018-06-22T23:59:55.683Z,11.18
